Time,TemperatureF,DewpointF,PressureIn,WindDirection,WindDirectionDegrees,WindSpeedMPH,WindSpeedGustMPH,Humidity,HourlyPrecipIn,Conditions,Clouds,dailyrainin,SoftwareType,DateUTC
2013-06-15 00:01:00,55.0,46.0,30.02,ESE,114,1.0,1.0,73,-99.99,,,-99.99,,2013-06-15 07:01:00,
2013-06-15 00:11:00,54.0,46.0,30.02,SE,135,1.0,2.0,75,-99.99,,,-99.99,,2013-06-15 07:11:00,
2013-06-15 00:23:00,54.0,47.0,30.02,SE,131,2.0,3.0,77,-99.99,,,-99.99,,2013-06-15 07:23:00,
2013-06-15 00:33:00,53.0,46.0,30.01,SSE,149,2.0,3.0,76,-99.99,,,-99.99,,2013-06-15 07:33:00,
2013-06-15 00:43:00,54.0,46.0,30.01,South,191,3.0,3.0,75,-99.99,,,-99.99,,2013-06-15 07:43:00,
2013-06-15 00:53:00,53.0,45.0,30.01,SSW,193,1.0,3.0,73,-99.99,,,-99.99,,2013-06-15 07:53:00,
2013-06-15 01:02:00,53.0,45.0,30.01,SSW,206,1.0,2.0,75,-99.99,,,-99.99,,2013-06-15 08:02:00,
2013-06-15 01:11:00,52.0,45.0,30.01,SSW,193,1.0,1.0,77,-99.99,,,-99.99,,2013-06-15 08:11:00,
2013-06-15 01:22:00,52.0,46.0,30.01,South,169,2.0,3.0,79,-99.99,,,-99.99,,2013-06-15 08:22:00,
2013-06-15 01:33:00,51.0,45.0,30.01,South,169,1.0,3.0,80,-99.99,,,-99.99,,2013-06-15 08:33:00,
2013-06-15 01:42:00,51.0,45.0,30.01,South,179,1.0,2.0,81,-99.99,,,-99.99,,2013-06-15 08:42:00,
2013-06-15 01:53:00,51.0,46.0,30.00,SSW,198,2.0,3.0,82,-99.99,,,-99.99,,2013-06-15 08:53:00,
2013-06-15 02:02:00,51.0,45.0,30.00,South,180,3.0,4.0,81,-99.99,,,-99.99,,2013-06-15 09:02:00,
2013-06-15 02:12:00,51.0,45.0,30.00,South,189,2.0,3.0,80,-99.99,,,-99.99,,2013-06-15 09:12:00,
2013-06-15 02:22:00,51.0,45.0,30.00,South,189,2.0,3.0,80,-99.99,,,-99.99,,2013-06-15 09:22:00,
2013-06-15 02:33:00,50.0,45.0,30.00,West,261,1.0,1.0,80,-99.99,,,-99.99,,2013-06-15 09:33:00,
2013-06-15 02:43:00,49.0,44.0,30.00,SSE,153,1.0,1.0,83,-99.99,,,-99.99,,2013-06-15 09:43:00,
2013-06-15 02:52:00,49.0,45.0,30.00,WSW,244,0.0,1.0,87,-99.99,,,-99.99,,2013-06-15 09:52:00,
2013-06-15 03:02:00,48.0,45.0,30.00,SE,126,1.0,1.0,87,-99.99,,,-99.99,,2013-06-15 10:02:00,
2013-06-15 03:11:00,48.0,44.0,30.00,SE,131,1.0,1.0,86,-99.99,,,-99.99,,2013-06-15 10:11:00,
2013-06-15 03:23:00,48.0,44.0,30.00,SE,131,1.0,1.0,86,-99.99,,,-99.99,,2013-06-15 10:23:00,
2013-06-15 03:33:00,47.0,44.0,30.00,ESE,107,1.0,1.0,87,-99.99,,,-99.99,,2013-06-15 10:33:00,
2013-06-15 03:43:00,47.0,43.0,29.99,South,179,1.0,2.0,89,-99.99,,,-99.99,,2013-06-15 10:43:00,
2013-06-15 03:53:00,47.0,44.0,29.99,SE,124,1.0,2.0,90,-99.99,,,-99.99,,2013-06-15 10:53:00,
2013-06-15 04:01:00,49.0,45.0,29.99,South,189,2.0,4.0,86,-99.99,,,-99.99,,2013-06-15 11:01:00,
2013-06-15 04:11:00,49.0,45.0,29.99,South,189,2.0,4.0,86,-99.99,,,-99.99,,2013-06-15 11:11:00,
2013-06-15 04:22:00,49.0,44.0,29.99,SE,130,1.0,1.0,84,-99.99,,,-99.99,,2013-06-15 11:22:00,
2013-06-15 04:33:00,48.0,45.0,29.99,SSW,192,1.0,1.0,87,-99.99,,,-99.99,,2013-06-15 11:33:00,
2013-06-15 04:43:00,47.0,44.0,29.99,SE,146,1.0,2.0,88,-99.99,,,-99.99,,2013-06-15 11:43:00,
2013-06-15 04:53:00,47.0,44.0,29.99,SSE,165,2.0,2.0,88,-99.99,,,-99.99,,2013-06-15 11:53:00,
2013-06-15 05:01:00,47.0,43.0,29.99,South,176,2.0,2.0,88,-99.99,,,-99.99,,2013-06-15 12:01:00,
2013-06-15 05:11:00,46.0,43.0,29.99,SE,126,2.0,2.0,89,-99.99,,,-99.99,,2013-06-15 12:11:00,
2013-06-15 05:22:00,46.0,44.0,29.99,SSE,160,2.0,3.0,89,-99.99,,,-99.99,,2013-06-15 12:22:00,
2013-06-15 05:33:00,46.0,44.0,29.99,SSE,160,2.0,3.0,89,-99.99,,,-99.99,,2013-06-15 12:33:00,
2013-06-15 05:43:00,46.0,43.0,29.99,SE,140,1.0,3.0,89,-99.99,,,-99.99,,2013-06-15 12:43:00,
2013-06-15 05:52:00,46.0,43.0,29.99,SE,146,1.0,1.0,89,-99.99,,,-99.99,,2013-06-15 12:52:00,
2013-06-15 06:02:00,46.0,43.0,29.99,SSE,151,1.0,3.0,89,-99.99,,,-99.99,,2013-06-15 13:02:00,
2013-06-15 06:11:00,46.0,43.0,29.99,SSE,155,1.0,2.0,89,-99.99,,,-99.99,,2013-06-15 13:11:00,
2013-06-15 06:22:00,46.0,43.0,29.99,South,171,1.0,3.0,89,-99.99,,,-99.99,,2013-06-15 13:22:00,
2013-06-15 06:32:00,46.0,43.0,29.99,South,176,1.0,1.0,89,-99.99,,,-99.99,,2013-06-15 13:32:00,
2013-06-15 06:43:00,46.0,44.0,29.99,WSW,241,1.0,1.0,90,-99.99,,,-99.99,,2013-06-15 13:43:00,
2013-06-15 06:53:00,47.0,44.0,29.99,South,187,1.0,2.0,89,-99.99,,,-99.99,,2013-06-15 13:53:00,
2013-06-15 07:01:00,47.0,44.0,29.99,South,173,2.0,3.0,89,-99.99,,,-99.99,,2013-06-15 14:01:00,
2013-06-15 07:12:00,49.0,44.0,29.99,South,175,2.0,3.0,84,-99.99,,,-99.99,,2013-06-15 14:12:00,
2013-06-15 07:22:00,51.0,45.0,29.99,SE,124,2.0,3.0,81,-99.99,,,-99.99,,2013-06-15 14:22:00,
2013-06-15 07:34:00,52.0,46.0,29.99,SE,129,2.0,2.0,80,-99.99,,,-99.99,,2013-06-15 14:34:00,
2013-06-15 07:43:00,52.0,46.0,29.99,ESE,106,2.0,3.0,78,-99.99,,,-99.99,,2013-06-15 14:43:00,
2013-06-15 07:53:00,53.0,46.0,29.99,East,85,1.0,1.0,76,-99.99,,,-99.99,,2013-06-15 14:53:00,
2013-06-15 08:01:00,54.0,46.0,29.99,East,93,1.0,1.0,74,-99.99,,,-99.99,,2013-06-15 15:01:00,
2013-06-15 08:11:00,54.0,46.0,29.99,NE,55,3.0,4.0,72,-99.99,,,-99.99,,2013-06-15 15:11:00,
2013-06-15 08:22:00,55.0,46.0,29.99,ENE,76,2.0,3.0,71,-99.99,,,-99.99,,2013-06-15 15:22:00,
2013-06-15 08:33:00,56.0,47.0,29.99,ENE,75,3.0,3.0,71,-99.99,,,-99.99,,2013-06-15 15:33:00,
2013-06-15 08:43:00,57.0,47.0,29.98,ENE,69,1.0,3.0,69,-99.99,,,-99.99,,2013-06-15 15:43:00,
2013-06-15 08:53:00,58.0,47.0,29.98,ENE,66,1.0,2.0,67,-99.99,,,-99.99,,2013-06-15 15:53:00,
2013-06-15 09:01:00,59.0,47.0,29.98,ENE,74,1.0,2.0,66,-99.99,,,-99.99,,2013-06-15 16:01:00,
2013-06-15 09:11:00,60.0,47.0,29.97,NE,51,1.0,1.0,63,-99.99,,,-99.99,,2013-06-15 16:11:00,
2013-06-15 09:22:00,61.0,48.0,29.97,ESE,110,1.0,2.0,62,-99.99,,,-99.99,,2013-06-15 16:22:00,
2013-06-15 09:33:00,62.0,48.0,29.97,ENE,65,1.0,3.0,59,-99.99,,,-99.99,,2013-06-15 16:33:00,
2013-06-15 09:43:00,63.0,47.0,29.97,ENE,76,2.0,3.0,56,-99.99,,,-99.99,,2013-06-15 16:43:00,
2013-06-15 09:53:00,64.0,49.0,29.97,ENE,73,1.0,4.0,57,-99.99,,,-99.99,,2013-06-15 16:53:00,
2013-06-15 10:01:00,65.0,47.0,29.97,North,8,3.0,6.0,53,-99.99,,,-99.99,,2013-06-15 17:01:00,
2013-06-15 10:11:00,65.0,48.0,29.96,ENE,64,2.0,4.0,53,-99.99,,,-99.99,,2013-06-15 17:11:00,
2013-06-15 10:21:00,65.0,48.0,29.96,ENE,64,2.0,4.0,53,-99.99,,,-99.99,,2013-06-15 17:21:00,
2013-06-15 10:32:00,66.0,48.0,29.96,NNW,342,2.0,4.0,51,-99.99,,,-99.99,,2013-06-15 17:32:00,
2013-06-15 10:43:00,67.0,48.0,29.96,North,356,4.0,6.0,50,-99.99,,,-99.99,,2013-06-15 17:43:00,
2013-06-15 10:52:00,68.0,48.0,29.96,North,355,5.0,8.0,47,-99.99,,,-99.99,,2013-06-15 17:52:00,
2013-06-15 11:01:00,70.0,48.0,29.96,North,8,4.0,9.0,46,-99.99,,,-99.99,,2013-06-15 18:01:00,
2013-06-15 11:11:00,73.0,47.0,29.95,NE,51,5.0,8.0,39,-99.99,,,-99.99,,2013-06-15 18:11:00,
2013-06-15 11:43:00,76.0,45.0,29.94,NE,50,7.0,12.0,32,-99.99,,,-99.99,,2013-06-15 18:43:00,
2013-06-15 11:53:00,77.0,45.0,29.94,NE,56,8.0,13.0,32,-99.99,,,-99.99,,2013-06-15 18:53:00,
2013-06-15 12:01:00,78.0,44.0,29.94,NE,41,5.0,10.0,29,-99.99,,,-99.99,,2013-06-15 19:01:00,
2013-06-15 12:33:00,80.0,43.0,29.93,East,86,8.0,13.0,27,-99.99,,,-99.99,,2013-06-15 19:33:00,
2013-06-15 12:52:00,81.0,43.0,29.93,ENE,64,5.0,11.0,25,-99.99,,,-99.99,,2013-06-15 19:52:00,
2013-06-15 13:02:00,82.0,43.0,29.92,East,87,6.0,12.0,26,-99.99,,,-99.99,,2013-06-15 20:02:00,
2013-06-15 13:11:00,82.0,43.0,29.92,East,79,8.0,12.0,25,-99.99,,,-99.99,,2013-06-15 20:11:00,
2013-06-15 13:22:00,83.0,43.0,29.91,ENE,73,5.0,10.0,24,-99.99,,,-99.99,,2013-06-15 20:22:00,
2013-06-15 13:33:00,84.0,42.0,29.91,NE,49,6.0,11.0,22,-99.99,,,-99.99,,2013-06-15 20:33:00,
2013-06-15 14:11:00,86.0,40.0,29.90,NE,41,4.0,9.0,20,-99.99,,,-99.99,,2013-06-15 21:11:00,
2013-06-15 14:42:00,86.0,39.0,29.89,NNW,343,4.0,6.0,19,-99.99,,,-99.99,,2013-06-15 21:42:00,
2013-06-15 14:52:00,86.0,40.0,29.89,NNE,27,1.0,4.0,19,-99.99,,,-99.99,,2013-06-15 21:52:00,
2013-06-15 15:01:00,86.0,40.0,29.89,NNW,345,3.0,8.0,20,-99.99,,,-99.99,,2013-06-15 22:01:00,
2013-06-15 15:11:00,88.0,39.0,29.89,North,5,3.0,5.0,18,-99.99,,,-99.99,,2013-06-15 22:11:00,
2013-06-15 15:22:00,85.0,42.0,29.89,NW,312,3.0,5.0,22,-99.99,,,-99.99,,2013-06-15 22:22:00,
2013-06-15 15:32:00,86.0,42.0,29.88,WNW,296,3.0,6.0,21,-99.99,,,-99.99,,2013-06-15 22:32:00,
2013-06-15 15:42:00,85.0,41.0,29.88,NNW,329,4.0,5.0,21,-99.99,,,-99.99,,2013-06-15 22:42:00,
2013-06-15 15:53:00,85.0,41.0,29.88,NW,304,2.0,4.0,21,-99.99,,,-99.99,,2013-06-15 22:53:00,
2013-06-15 16:01:00,86.0,41.0,29.88,North,2,3.0,7.0,19,-99.99,,,-99.99,,2013-06-15 23:01:00,
2013-06-15 16:11:00,86.0,44.0,29.87,West,267,4.0,7.0,23,-99.99,,,-99.99,,2013-06-15 23:11:00,
2013-06-15 16:22:00,86.0,41.0,29.87,NW,326,2.0,5.0,20,-99.99,,,-99.99,,2013-06-15 23:22:00,
2013-06-15 16:33:00,86.0,41.0,29.87,NW,326,2.0,5.0,20,-99.99,,,-99.99,,2013-06-15 23:33:00,
2013-06-15 16:42:00,89.0,39.0,29.87,NNW,333,3.0,7.0,17,-99.99,,,-99.99,,2013-06-15 23:42:00,
2013-06-15 16:52:00,88.0,41.0,29.87,NW,324,3.0,8.0,19,-99.99,,,-99.99,,2013-06-15 23:52:00,
2013-06-15 17:01:00,86.0,44.0,29.87,NW,305,5.0,8.0,22,-99.99,,,-99.99,,2013-06-16 00:01:00,
2013-06-15 17:11:00,83.0,46.0,29.87,WNW,296,5.0,9.0,27,-99.99,,,-99.99,,2013-06-16 00:11:00,
2013-06-15 17:22:00,83.0,47.0,29.87,WNW,298,3.0,8.0,28,-99.99,,,-99.99,,2013-06-16 00:22:00,
2013-06-15 17:33:00,84.0,48.0,29.87,WNW,289,7.0,12.0,28,-99.99,,,-99.99,,2013-06-16 00:33:00,
2013-06-15 17:43:00,84.0,48.0,29.87,WNW,293,7.0,12.0,28,-99.99,,,-99.99,,2013-06-16 00:43:00,
2013-06-15 17:52:00,84.0,49.0,29.87,WNW,285,9.0,15.0,29,-99.99,,,-99.99,,2013-06-16 00:52:00,
2013-06-15 18:01:00,84.0,49.0,29.87,WNW,284,8.0,13.0,29,-99.99,,,-99.99,,2013-06-16 01:01:00,
2013-06-15 18:11:00,83.0,49.0,29.87,WNW,288,9.0,15.0,30,-99.99,,,-99.99,,2013-06-16 01:11:00,
2013-06-15 18:22:00,83.0,49.0,29.87,WNW,288,9.0,15.0,30,-99.99,,,-99.99,,2013-06-16 01:22:00,
2013-06-15 18:33:00,83.0,49.0,29.86,West,274,8.0,14.0,31,-99.99,,,-99.99,,2013-06-16 01:33:00,
2013-06-15 18:42:00,82.0,48.0,29.87,West,279,9.0,17.0,30,-99.99,,,-99.99,,2013-06-16 01:42:00,
2013-06-15 18:53:00,82.0,48.0,29.87,West,276,11.0,19.0,30,-99.99,,,-99.99,,2013-06-16 01:53:00,
2013-06-15 19:01:00,81.0,47.0,29.87,WNW,288,12.0,20.0,30,-99.99,,,-99.99,,2013-06-16 02:01:00,
2013-06-15 19:12:00,81.0,48.0,29.87,WNW,285,10.0,21.0,31,-99.99,,,-99.99,,2013-06-16 02:12:00,
2013-06-15 19:22:00,81.0,47.0,29.87,WNW,285,9.0,18.0,30,-99.99,,,-99.99,,2013-06-16 02:22:00,
2013-06-15 19:33:00,80.0,47.0,29.87,WNW,288,11.0,19.0,31,-99.99,,,-99.99,,2013-06-16 02:33:00,
2013-06-15 19:43:00,80.0,47.0,29.88,WNW,289,11.0,22.0,31,-99.99,,,-99.99,,2013-06-16 02:43:00,
2013-06-15 19:53:00,79.0,47.0,29.88,WNW,284,10.0,17.0,31,-99.99,,,-99.99,,2013-06-16 02:53:00,
2013-06-15 20:01:00,79.0,46.0,29.88,West,281,11.0,18.0,31,-99.99,,,-99.99,,2013-06-16 03:01:00,
2013-06-15 20:11:00,78.0,46.0,29.88,WNW,283,9.0,18.0,32,-99.99,,,-99.99,,2013-06-16 03:11:00,
2013-06-15 20:22:00,78.0,46.0,29.88,West,279,10.0,17.0,32,-99.99,,,-99.99,,2013-06-16 03:22:00,
2013-06-15 20:33:00,77.0,46.0,29.89,West,278,12.0,21.0,33,-99.99,,,-99.99,,2013-06-16 03:33:00,
2013-06-15 20:43:00,77.0,47.0,29.89,West,269,8.0,17.0,34,-99.99,,,-99.99,,2013-06-16 03:43:00,
2013-06-15 20:53:00,76.0,48.0,29.90,WSW,247,4.0,10.0,36,-99.99,,,-99.99,,2013-06-16 03:53:00,
2013-06-15 21:01:00,76.0,48.0,29.90,West,263,4.0,7.0,38,-99.99,,,-99.99,,2013-06-16 04:01:00,
2013-06-15 21:12:00,75.0,48.0,29.90,WSW,258,8.0,15.0,38,-99.99,,,-99.99,,2013-06-16 04:12:00,
2013-06-15 21:23:00,75.0,47.0,29.91,West,265,6.0,11.0,37,-99.99,,,-99.99,,2013-06-16 04:23:00,
2013-06-15 21:33:00,74.0,47.0,29.91,West,268,8.0,18.0,37,-99.99,,,-99.99,,2013-06-16 04:33:00,
2013-06-15 21:42:00,74.0,47.0,29.92,WSW,237,5.0,13.0,38,-99.99,,,-99.99,,2013-06-16 04:42:00,
2013-06-15 21:53:00,74.0,48.0,29.95,SW,233,4.0,13.0,39,-99.99,,,-99.99,,2013-06-16 04:53:00,
2013-06-15 22:11:00,68.0,54.0,29.94,WNW,285,7.0,13.0,59,-99.99,,,-99.99,,2013-06-16 05:11:00,
2013-06-15 22:22:00,67.0,56.0,29.95,SSW,213,3.0,12.0,67,-99.99,,,-99.99,,2013-06-16 05:22:00,
2013-06-15 22:33:00,66.0,57.0,29.94,SW,232,4.0,13.0,73,-99.99,,,-99.99,,2013-06-16 05:33:00,
2013-06-15 22:43:00,66.0,57.0,29.94,SW,232,4.0,13.0,73,-99.99,,,-99.99,,2013-06-16 05:43:00,
2013-06-15 22:52:00,65.0,59.0,29.95,South,191,3.0,5.0,78,-99.99,,,-99.99,,2013-06-16 05:52:00,
2013-06-15 23:01:00,65.0,59.0,29.96,South,184,1.0,4.0,82,-99.99,,,-99.99,,2013-06-16 06:01:00,
2013-06-15 23:11:00,64.0,58.0,29.96,South,187,3.0,4.0,79,-99.99,,,-99.99,,2013-06-16 06:11:00,
2013-06-15 23:22:00,65.0,60.0,29.96,West,271,4.0,5.0,84,-99.99,,,-99.99,,2013-06-16 06:22:00,
2013-06-15 23:33:00,65.0,58.0,29.96,SSW,195,3.0,5.0,77,-99.99,,,-99.99,,2013-06-16 06:33:00,
2013-06-15 23:43:00,65.0,57.0,29.96,SSW,211,4.0,7.0,76,-99.99,,,-99.99,,2013-06-16 06:43:00,
2013-06-15 23:52:00,64.0,58.0,29.96,South,188,3.0,4.0,80,-99.99,,,-99.99,,2013-06-16 06:52:00,